createdAt,value
2023-11-13T00:01:26.724Z,99902.31
2023-11-13T00:03:54.606Z,99904.84
2023-11-13T00:06:22.397Z,99902.13
2023-11-13T00:08:50.131Z,99903.19
2023-11-13T00:11:18.256Z,99901.47
2023-11-13T00:13:46.330Z,99896.69
2023-11-13T00:16:14.193Z,99900.25
2023-11-13T00:18:42.254Z,99895.63
2023-11-13T00:21:10.035Z,99895.63
2023-11-13T00:23:38.593Z,99903.81
2023-11-13T00:26:06.474Z,99895.63
2023-11-13T00:28:34.739Z,99895.00
2023-11-13T00:31:03.304Z,99905.06
2023-11-13T00:33:31.121Z,99903.19
2023-11-13T00:35:58.858Z,99898.56
2023-11-13T00:38:26.632Z,99895.63
2023-11-13T00:40:54.376Z,99904.03
2023-11-13T00:43:22.152Z,99906.94
2023-11-13T00:45:51.683Z,99906.09
2023-11-13T00:48:19.499Z,99899.59
2023-11-13T00:50:47.312Z,99896.03
2023-11-13T00:53:15.026Z,99895.19
2023-11-13T00:55:42.866Z,99885.34
2023-11-13T00:58:10.701Z,99883.47
2023-11-13T01:00:38.561Z,99883.47
2023-11-13T01:03:06.580Z,99878.00
2023-11-13T01:05:34.821Z,99883.88
2023-11-13T01:08:02.499Z,99881.13
2023-11-13T01:10:32.641Z,99868.53
2023-11-13T01:13:00.717Z,99862.88
2023-11-13T01:15:28.487Z,99860.16
2023-11-13T01:17:56.323Z,99858.28
2023-11-13T01:20:25.088Z,99857.44
2023-11-13T01:22:52.906Z,99860.34
2023-11-13T01:25:20.807Z,99876.72
2023-11-13T01:27:48.644Z,99876.72
2023-11-13T01:30:16.490Z,99870.00
2023-11-13T01:32:45.051Z,99861.59
2023-11-13T01:35:12.786Z,99862.84
2023-11-13T01:37:40.476Z,99860.13
2023-11-13T01:40:08.793Z,99860.94
2023-11-13T01:42:36.608Z,99870.00
2023-11-13T01:45:04.798Z,99867.28
2023-11-13T01:47:32.596Z,99848.38
2023-11-13T01:50:00.381Z,99847.31
2023-11-13T01:52:28.248Z,99851.53
2023-11-13T01:54:56.390Z,99853.22
2023-11-13T01:57:24.188Z,99846.09
2023-11-13T01:59:52.130Z,99865.38
2023-11-13T02:02:20.091Z,99878.19
2023-11-13T02:04:47.845Z,99882.97
2023-11-13T02:07:15.597Z,99867.88
2023-11-13T02:09:43.578Z,99869.13
2023-11-13T02:12:11.370Z,99856.38
2023-11-13T02:14:39.113Z,99854.88
2023-11-13T02:17:06.907Z,99839.78
2023-11-13T02:19:34.682Z,99839.59
2023-11-13T02:22:02.466Z,99856.97
2023-11-13T02:24:30.220Z,99867.28
2023-11-13T02:26:58.014Z,99865.38
2023-11-13T02:29:25.786Z,99862.84
2023-11-13T02:31:53.846Z,99867.88
2023-11-13T02:34:21.691Z,99862.44
2023-11-13T02:36:50.192Z,99863.31
2023-11-13T02:39:19.126Z,99856.59
2023-11-13T02:41:46.919Z,99853.41
2023-11-13T02:44:14.689Z,99844.41
2023-11-13T02:46:42.561Z,99842.75
2023-11-13T02:49:10.377Z,99844.41
2023-11-13T02:51:39.055Z,99847.13
2023-11-13T02:54:06.875Z,99848.19
2023-11-13T02:56:34.623Z,99855.31
2023-11-13T02:59:03.727Z,99855.31
2023-11-13T03:01:31.713Z,99848.63
2023-11-13T03:03:59.862Z,99858.88
2023-11-13T03:06:27.748Z,99864.13
2023-11-13T03:08:55.880Z,99861.59
2023-11-13T03:11:23.661Z,99858.03
2023-11-13T03:13:54.495Z,99853.41
2023-11-13T03:16:25.111Z,99867.28
2023-11-13T03:18:52.899Z,99855.31
2023-11-13T03:21:20.690Z,99844.41
2023-11-13T03:23:48.490Z,99849.22
2023-11-13T03:26:16.274Z,99834.97
2023-11-13T03:28:44.068Z,99835.59
2023-11-13T03:31:11.926Z,99825.50
2023-11-13T03:33:41.987Z,99838.97
2023-11-13T03:36:10.118Z,99840.84
2023-11-13T03:38:37.981Z,99842.53
2023-11-13T03:41:05.741Z,99839.78
2023-11-13T03:43:33.487Z,99838.13
2023-11-13T03:46:01.302Z,99838.97
2023-11-13T03:48:29.012Z,99829.13
2023-11-13T03:50:57.141Z,99835.19
2023-11-13T03:53:24.922Z,99827.63
2023-11-13T03:55:52.686Z,99848.59
2023-11-13T03:58:20.514Z,99842.09
2023-11-13T04:00:48.323Z,99834.31
2023-11-13T04:03:16.134Z,99838.72
2023-11-13T04:05:43.908Z,99830.53
2023-11-13T04:08:11.634Z,99836.00
2023-11-13T04:10:39.654Z,99839.56
2023-11-13T04:13:07.538Z,99839.78
2023-11-13T04:15:35.284Z,99844.19
2023-11-13T04:18:04.609Z,99851.50
2023-11-13T04:20:32.879Z,99860.94
2023-11-13T04:23:00.854Z,99864.31
2023-11-13T04:25:28.724Z,99869.13
2023-11-13T04:27:58.409Z,99869.13
2023-11-13T04:30:26.178Z,99868.47
2023-11-13T04:32:54.006Z,99864.72
2023-11-13T04:35:21.877Z,99860.09
2023-11-13T04:37:49.983Z,99862.81
2023-11-13T04:40:18.141Z,99859.88
2023-11-13T04:42:45.992Z,99858.22
2023-11-13T04:45:14.006Z,99858.41
2023-11-13T04:47:41.734Z,99855.47
2023-11-13T04:50:09.518Z,99845.63
2023-11-13T04:52:37.262Z,99848.75
2023-11-13T04:55:05.048Z,99854.19
2023-11-13T04:57:32.760Z,99851.69
2023-11-13T05:00:00.693Z,99850.84
2023-11-13T05:02:28.544Z,99849.97
2023-11-13T05:04:56.284Z,99861.94
2023-11-13T05:07:24.117Z,99865.72
2023-11-13T05:09:51.981Z,99871.16
2023-11-13T05:12:19.755Z,99874.06
2023-11-13T05:14:49.417Z,99881.59
2023-11-13T05:17:17.197Z,99871.13
2023-11-13T05:19:44.950Z,99873.41
2023-11-13T05:22:12.928Z,99859.38
2023-11-13T05:24:40.686Z,99851.59
2023-11-13T05:27:08.544Z,99845.16
2023-11-13T05:29:36.314Z,99830.53
2023-11-13T05:32:06.465Z,99822.53
2023-11-13T05:34:34.505Z,99811.81
2023-11-13T05:37:02.368Z,99812.66
2023-11-13T05:39:30.273Z,99814.31
2023-11-13T05:41:58.210Z,99816.03
2023-11-13T05:44:26.050Z,99823.97
2023-11-13T05:46:53.877Z,99830.44
2023-11-13T05:49:22.249Z,99838.41
2023-11-13T05:51:50.042Z,99834.25
2023-11-13T05:54:19.522Z,99844.94
2023-11-13T05:56:47.295Z,99847.25
2023-11-13T05:59:16.215Z,99847.66
2023-11-13T06:01:43.938Z,99858.16
2023-11-13T06:04:11.728Z,99850.19
2023-11-13T06:06:39.551Z,99858.16
2023-11-13T06:09:07.265Z,99865.72
2023-11-13T06:11:35.143Z,99874.28
2023-11-13T06:14:03.094Z,99876.16
2023-11-13T06:16:30.869Z,99871.75
2023-11-13T06:19:00.341Z,99871.94
2023-11-13T06:21:28.091Z,99882.66
2023-11-13T06:23:55.879Z,99882.66
2023-11-13T06:28:52.102Z,99870.72
2023-11-13T06:31:23.233Z,99865.25
2023-11-13T06:33:52.695Z,99854.75
2023-11-13T06:36:20.468Z,99850.16
2023-11-13T06:38:48.923Z,99853.09
2023-11-13T06:41:16.885Z,99847.00
2023-11-13T06:43:44.626Z,99841.13
2023-11-13T06:46:13.242Z,99829.41
2023-11-13T06:48:41.172Z,99826.69
2023-11-13T06:51:10.946Z,99824.13
2023-11-13T06:53:38.910Z,99825.38
2023-11-13T06:56:08.079Z,99820.78
2023-11-13T06:58:37.519Z,99817.03
2023-11-13T07:01:05.367Z,99806.13
2023-11-13T07:03:34.307Z,99808.84
2023-11-13T07:06:02.180Z,99805.28
2023-11-13T07:08:29.964Z,99807.78
2023-11-13T07:10:57.756Z,99809.28
2023-11-13T07:13:25.498Z,99805.53
2023-11-13T07:15:53.525Z,99808.25
2023-11-13T07:18:21.269Z,99800.44
2023-11-13T07:20:49.061Z,99806.56
2023-11-13T07:23:19.227Z,99809.09
2023-11-13T07:25:47.106Z,99809.09
2023-11-13T07:28:16.554Z,99813.47
2023-11-13T07:30:45.226Z,99814.13
2023-11-13T07:33:13.090Z,99817.50
2023-11-13T07:35:41.835Z,99809.31
2023-11-13T07:38:09.632Z,99813.72
2023-11-13T07:40:38.071Z,99808.69
2023-11-13T07:43:09.932Z,99803.88
2023-11-13T07:45:39.279Z,99801.34
2023-11-13T07:48:08.819Z,99793.81
2023-11-13T07:50:56.607Z,99787.72
2023-11-13T07:53:26.711Z,99785.22
2023-11-13T07:55:55.794Z,99778.09
2023-11-13T07:58:23.745Z,99780.81
2023-11-13T08:00:54.210Z,99789.84
2023-11-13T08:03:22.228Z,99786.91
2023-11-13T08:05:49.959Z,99782.31
2023-11-13T08:08:18.036Z,99786.69
2023-11-13T08:10:47.369Z,99776.03
2023-11-13T08:13:15.487Z,99770.34
2023-11-13T08:15:44.023Z,99772.44
2023-11-13T08:18:15.353Z,99771.41
2023-11-13T08:20:43.740Z,99763.22
2023-11-13T08:23:12.362Z,99758.81
2023-11-13T08:25:41.047Z,99761.53
2023-11-13T08:28:10.226Z,99749.59
2023-11-13T08:30:38.002Z,99754.22
2023-11-13T08:33:05.822Z,99755.06
2023-11-13T08:35:33.617Z,99756.72
2023-11-13T08:38:02.244Z,99760.50
2023-11-13T08:40:30.527Z,99761.53
2023-11-13T08:43:00.963Z,99770.94
2023-11-13T08:45:30.292Z,99764.25
2023-11-13T08:47:58.128Z,99760.50
2023-11-13T08:50:26.174Z,99761.34
2023-11-13T08:52:55.771Z,99757.19
2023-11-13T08:57:52.205Z,99754.03
2023-11-13T09:00:23.058Z,99745.63
2023-11-13T09:02:51.199Z,99749.84
2023-11-13T09:05:20.856Z,99747.09
2023-11-13T09:07:48.641Z,99738.50
2023-11-13T09:10:17.816Z,99739.78
2023-11-13T09:12:46.644Z,99731.59
2023-11-13T09:15:15.670Z,99725.75
2023-11-13T09:17:44.838Z,99722.63
2023-11-13T09:20:13.115Z,99727.00
2023-11-13T09:22:41.532Z,99725.97
2023-11-13T09:25:09.585Z,99719.47
2023-11-13T09:27:37.369Z,99716.31
2023-11-13T09:30:05.615Z,99716.31
2023-11-13T09:32:33.660Z,99704.41
2023-11-13T09:35:01.419Z,99707.72
2023-11-13T09:37:29.401Z,99699.31
2023-11-13T09:39:57.848Z,99700.19
2023-11-13T09:42:27.002Z,99695.16
2023-11-13T09:44:57.115Z,99694.72
2023-11-13T09:47:25.408Z,99688.44
2023-11-13T09:49:53.094Z,99680.88
2023-11-13T09:52:20.820Z,99680.88
2023-11-13T09:54:49.972Z,99675.44
2023-11-13T09:57:17.889Z,99666.22
2023-11-13T09:59:47.865Z,99660.53
2023-11-13T10:02:15.696Z,99642.72
2023-11-13T10:04:43.476Z,99642.28
2023-11-13T10:07:11.252Z,99648.38
2023-11-13T10:09:39.261Z,99640.22
2023-11-13T10:12:08.612Z,99640.22
2023-11-13T10:14:36.490Z,99629.94
2023-11-13T10:17:04.438Z,99616.31
2023-11-13T10:19:33.229Z,99614.41
2023-11-13T10:22:01.006Z,99616.91
2023-11-13T10:24:37.812Z,99636.84
2023-11-13T10:27:12.163Z,99636.84
2023-11-13T10:29:39.916Z,99640.44
2023-11-13T10:32:07.622Z,99637.72
2023-11-13T10:34:35.395Z,99647.75
2023-11-13T10:37:03.247Z,99635.59
2023-11-13T10:39:36.095Z,99634.31
2023-11-13T10:42:04.276Z,99622.81
2023-11-13T10:44:32.454Z,99633.28
2023-11-13T10:47:00.376Z,99637.47
2023-11-13T10:49:30.054Z,99631.00
2023-11-13T10:52:00.717Z,99620.09
2023-11-13T10:54:30.730Z,99613.78
2023-11-13T10:57:01.209Z,99606.84
2023-11-13T10:59:28.922Z,99602.25
2023-11-13T11:01:57.327Z,99600.78
2023-11-13T11:04:28.327Z,99598.66
2023-11-13T11:06:57.461Z,99600.78
2023-11-13T11:09:25.237Z,99594.47
2023-11-13T11:11:53.124Z,99588.19
2023-11-13T11:14:20.855Z,99584.00
2023-11-13T11:16:49.509Z,99583.78
2023-11-13T11:19:17.492Z,99590.09
2023-11-13T11:21:46.910Z,99574.78
2023-11-13T11:24:14.721Z,99563.66
2023-11-13T11:26:42.510Z,99556.53
2023-11-13T11:29:10.431Z,99557.38
2023-11-13T11:31:39.666Z,99562.63
2023-11-13T11:34:08.079Z,99565.13
2023-11-13T11:36:36.055Z,99551.72
2023-11-13T11:39:04.511Z,99556.75
2023-11-13T11:41:32.218Z,99565.56
2023-11-13T11:44:00.219Z,99559.47
2023-11-13T11:46:28.079Z,99560.31
2023-11-13T11:48:55.828Z,99558.84
2023-11-13T11:51:25.387Z,99550.25
2023-11-13T11:53:53.183Z,99542.91
2023-11-13T11:56:20.903Z,99532.00
2023-11-13T11:58:48.705Z,99525.50
2023-11-13T12:01:17.356Z,99521.94
2023-11-13T12:03:45.752Z,99516.47
2023-11-13T12:06:13.555Z,99509.34
2023-11-13T12:08:41.287Z,99501.19
2023-11-13T12:11:09.093Z,99504.31
2023-11-13T12:13:36.987Z,99508.09
2023-11-13T12:16:04.796Z,99491.09
2023-11-13T12:18:32.565Z,99491.72
2023-11-13T12:21:00.459Z,99485.03
2023-11-13T12:23:31.477Z,99485.66
2023-11-13T12:25:59.188Z,99477.47
2023-11-13T12:28:27.017Z,99470.75
2023-11-13T12:30:55.643Z,99465.31
2023-11-13T12:33:23.556Z,99463.63
2023-11-13T12:35:51.280Z,99459.84
2023-11-13T12:38:18.987Z,99453.38
2023-11-13T12:40:46.800Z,99451.69
2023-11-13T12:43:14.613Z,99448.94
2023-11-13T12:45:42.356Z,99435.94
2023-11-13T12:48:13.483Z,99426.72
2023-11-13T12:50:42.626Z,99426.31
2023-11-13T12:53:14.879Z,99412.88
2023-11-13T12:55:44.674Z,99409.56
2023-11-13T12:58:12.731Z,99411.00
2023-11-13T13:00:41.923Z,99399.25
2023-11-13T13:03:12.790Z,99397.78
2023-11-13T13:05:43.496Z,99383.31
2023-11-13T13:08:12.372Z,99387.75
2023-11-13T13:10:40.121Z,99375.97
2023-11-13T13:13:09.291Z,99373.06
2023-11-13T13:15:37.163Z,99359.63
2023-11-13T13:18:05.446Z,99354.41
2023-11-13T13:20:34.457Z,99351.69
2023-11-13T13:23:03.010Z,99354.41
2023-11-13T13:25:32.815Z,99346.22
2023-11-13T13:28:00.775Z,99342.44
2023-11-13T13:30:33.458Z,99333.03
2023-11-13T13:33:02.832Z,99318.56
2023-11-13T13:35:30.803Z,99323.81
2023-11-13T13:37:58.537Z,99318.97
2023-11-13T13:40:27.052Z,99310.16
2023-11-13T13:43:00.483Z,99307.25
2023-11-13T13:45:29.061Z,99303.47
2023-11-13T13:47:57.582Z,99297.16
2023-11-13T13:50:26.287Z,99297.16
2023-11-13T13:52:57.529Z,99302.00
2023-11-13T13:55:29.035Z,99305.56
2023-11-13T13:57:58.343Z,99295.47
2023-11-13T14:00:35.978Z,99290.03
2023-11-13T14:03:11.752Z,99285.44
2023-11-13T14:05:43.549Z,99285.00
2023-11-13T14:08:16.916Z,99283.13
2023-11-13T14:10:51.955Z,99273.69
2023-11-13T14:13:23.928Z,99259.03
2023-11-13T14:18:26.393Z,99251.88
2023-11-13T14:20:57.523Z,99248.56
2023-11-13T14:23:26.396Z,99255.88
2023-11-13T14:25:56.024Z,99256.94
2023-11-13T14:28:24.213Z,99254.00
2023-11-13T14:30:52.353Z,99244.75
2023-11-13T14:33:21.337Z,99245.59
2023-11-13T14:35:49.204Z,99235.13
2023-11-13T14:38:16.971Z,99228.84
2023-11-13T14:40:44.725Z,99222.13
2023-11-13T14:43:12.613Z,99217.72
2023-11-13T14:45:44.800Z,99217.41
2023-11-13T14:48:12.649Z,99215.75
2023-11-13T14:50:40.382Z,99214.31
2023-11-13T14:53:08.476Z,99208.38
2023-11-13T14:55:37.264Z,99193.56
2023-11-13T14:58:05.189Z,99188.22
2023-11-13T15:00:33.148Z,99183.25
2023-11-13T15:03:00.884Z,99181.25
2023-11-13T15:05:28.615Z,99169.97
2023-11-13T15:07:56.349Z,99161.53
2023-11-13T15:10:24.543Z,99156.94
2023-11-13T15:12:52.376Z,99128.44
2023-11-13T15:15:20.527Z,99114.34
2023-11-13T15:17:48.830Z,99097.59
2023-11-13T15:20:18.996Z,99092.91
2023-11-13T15:25:20.202Z,99062.81
2023-11-13T15:27:48.415Z,99069.03
2023-11-13T15:30:19.384Z,99054.19
2023-11-13T15:32:47.394Z,99055.00
2023-11-13T15:35:15.385Z,99055.00
2023-11-13T15:37:43.503Z,99038.59
2023-11-13T15:40:12.249Z,99023.00
2023-11-13T15:42:40.409Z,99009.19
2023-11-13T15:45:08.510Z,99001.34
2023-11-13T15:47:39.514Z,99000.06
2023-11-13T15:50:10.682Z,98990.53
2023-11-13T15:52:38.449Z,98984.78
2023-11-13T15:55:06.491Z,98980.88
2023-11-13T15:57:34.398Z,98981.66
2023-11-13T16:00:02.145Z,98964.16
2023-11-13T16:02:29.915Z,98953.88
2023-11-13T16:05:00.463Z,98952.22
2023-11-13T16:07:28.297Z,98933.53
2023-11-13T16:09:56.066Z,98924.94
2023-11-13T16:12:23.834Z,98914.66
2023-11-13T16:14:51.540Z,98917.31
2023-11-13T16:17:20.890Z,98920.59
2023-11-13T16:19:49.308Z,98921.06
2023-11-13T16:22:17.126Z,98924.72
2023-11-13T16:24:44.929Z,98917.97
2023-11-13T16:27:15.561Z,98918.03
2023-11-13T16:29:43.321Z,98905.94
2023-11-13T16:32:12.745Z,98911.88
2023-11-13T16:34:40.735Z,98914.81
2023-11-13T16:37:09.884Z,98915.88
2023-11-13T16:39:38.926Z,98911.88
2023-11-13T16:42:06.672Z,98910.44
2023-11-13T16:44:34.453Z,98901.38
2023-11-13T16:47:02.271Z,98888.81
2023-11-13T16:49:32.363Z,98886.31
2023-11-13T16:52:01.696Z,98879.06
2023-11-13T16:54:29.467Z,98867.91
2023-11-13T16:56:59.232Z,98859.97
2023-11-13T16:59:27.042Z,98852.38
2023-11-13T17:01:57.021Z,98836.84
2023-11-13T17:04:24.887Z,98832.47
2023-11-13T17:06:52.690Z,98827.22
2023-11-13T17:09:21.119Z,98811.69
2023-11-13T17:11:48.885Z,98807.53
2023-11-13T17:14:16.780Z,98800.75
2023-11-13T17:16:44.641Z,98798.03
2023-11-13T17:19:11.441Z,98803.75
2023-11-13T17:21:40.293Z,98788.19
2023-11-13T17:24:08.013Z,98785.94
2023-11-13T17:26:35.961Z,98763.88
2023-11-13T17:29:03.804Z,98760.09
2023-11-13T17:31:31.712Z,98749.19
2023-11-13T17:33:59.546Z,98752.75
2023-11-13T17:36:29.705Z,98753.78
2023-11-13T17:38:57.661Z,98755.94
2023-11-13T17:41:26.343Z,98742.31
2023-11-13T17:43:54.150Z,98737.41
2023-11-13T17:46:21.977Z,98734.69
2023-11-13T17:48:50.114Z,98731.97
2023-11-13T17:51:18.025Z,98724.84
2023-11-13T17:53:46.576Z,98735.16
2023-11-13T17:56:14.776Z,98719.63
2023-11-13T17:58:42.650Z,98707.88
2023-11-13T18:01:11.650Z,98696.97
2023-11-13T18:03:39.852Z,98683.34
2023-11-13T18:06:07.988Z,98678.72
2023-11-13T18:08:35.786Z,98681.91
2023-11-13T18:11:04.328Z,98673.72
2023-11-13T18:13:33.586Z,98668.28
2023-11-13T18:16:02.480Z,98650.00
2023-11-13T18:18:32.630Z,98634.72
2023-11-13T18:21:00.563Z,98641.00
2023-11-13T18:23:28.461Z,98643.13
2023-11-13T18:26:01.013Z,98636.38
2023-11-13T18:28:29.476Z,98635.53
2023-11-13T18:30:59.865Z,98633.91
2023-11-13T18:33:30.725Z,98635.19
2023-11-13T18:36:01.075Z,98628.66
2023-11-13T18:38:29.216Z,98626.75
2023-11-13T18:40:57.332Z,98623.34
2023-11-13T18:43:27.001Z,98612.69
2023-11-13T18:45:56.516Z,98611.00
2023-11-13T18:48:25.386Z,98604.94
2023-11-13T18:50:53.522Z,98604.94
2023-11-13T18:53:23.468Z,98594.41
2023-11-13T18:55:51.368Z,98589.78
2023-11-13T18:58:19.662Z,98590.59
2023-11-13T19:00:47.490Z,98599.25
2023-11-13T19:03:14.373Z,98600.91
2023-11-13T19:05:42.288Z,98606.63
2023-11-13T19:08:10.129Z,98603.91
2023-11-13T19:10:37.978Z,98607.44
2023-11-13T19:13:06.007Z,98609.69
2023-11-13T19:15:34.474Z,98616.22
2023-11-13T19:18:02.285Z,98619.19
2023-11-13T19:20:30.131Z,98631.50
2023-11-13T19:22:57.929Z,98638.66
2023-11-13T19:25:25.829Z,98643.03
2023-11-13T19:27:53.947Z,98662.94
2023-11-13T19:30:21.702Z,98683.94
2023-11-13T19:32:58.480Z,98703.25
2023-11-13T19:35:30.837Z,98700.78
2023-11-13T19:37:59.822Z,98683.34
2023-11-13T19:40:27.854Z,98683.34
2023-11-13T19:42:55.678Z,98701.38
2023-11-13T19:45:25.630Z,98717.75
2023-11-13T19:47:53.602Z,98737.28
2023-11-13T19:50:21.431Z,98729.34
2023-11-13T19:52:51.066Z,98714.91
2023-11-13T19:55:18.960Z,98728.53
2023-11-13T19:57:46.768Z,98750.56
2023-11-13T20:00:18.040Z,98728.75
2023-11-13T20:02:47.663Z,98733.13
2023-11-13T20:05:16.090Z,98758.28
2023-11-13T20:07:44.543Z,98746.75
2023-11-13T20:10:14.907Z,98724.13
2023-11-13T20:12:42.842Z,98710.97
2023-11-13T20:15:10.736Z,98709.06
2023-11-13T20:17:38.853Z,98706.56
2023-11-13T20:20:10.866Z,98713.94
2023-11-13T20:22:39.771Z,98721.03
2023-11-13T20:25:07.879Z,98716.41
2023-11-13T20:27:36.273Z,98717.50
2023-11-13T20:30:06.445Z,98715.59
2023-11-13T20:32:34.552Z,98714.16
2023-11-13T20:35:02.493Z,98721.72
2023-11-13T20:37:30.582Z,98716.88
2023-11-13T20:39:59.236Z,98719.00
2023-11-13T20:42:27.166Z,98731.81
2023-11-13T20:44:54.990Z,98735.63
2023-11-13T20:47:23.141Z,98735.97
2023-11-13T20:49:51.870Z,98732.41
2023-11-13T20:52:19.858Z,98740.59
2023-11-13T20:54:47.865Z,98749.59
2023-11-13T20:57:15.702Z,98770.81
2023-11-13T20:59:43.507Z,98770.00
2023-11-13T21:02:11.581Z,98770.22
2023-11-13T21:04:41.696Z,98761.81
2023-11-13T21:07:09.535Z,98754.47
2023-11-13T21:09:37.484Z,98734.53
2023-11-13T21:12:05.954Z,98759.31
2023-11-13T21:14:34.730Z,98784.47
2023-11-13T21:17:02.719Z,98785.53
2023-11-13T21:19:30.489Z,98786.13
2023-11-13T21:21:58.231Z,98782.19
2023-11-13T21:24:26.120Z,98788.72
2023-11-13T21:26:53.856Z,98797.94
2023-11-13T21:29:21.994Z,98798.56
2023-11-13T21:31:49.867Z,98798.56
2023-11-13T21:34:18.437Z,98806.75
2023-11-13T21:36:46.165Z,98802.34
2023-11-13T21:39:14.707Z,98810.53
2023-11-13T21:41:43.557Z,98812.19
2023-11-13T21:44:11.862Z,98806.75
2023-11-13T21:46:39.694Z,98820.38
2023-11-13T21:49:07.400Z,98813.84
2023-11-13T21:51:36.511Z,98808.16
2023-11-13T21:54:04.683Z,98801.06
2023-11-13T21:56:33.374Z,98808.16
2023-11-13T21:59:01.363Z,98826.19
2023-11-13T22:01:29.441Z,98839.25
2023-11-13T22:03:57.325Z,98845.28
2023-11-13T22:06:25.079Z,98854.91
2023-11-13T22:08:52.870Z,98853.25
2023-11-13T22:11:21.065Z,98872.34
2023-11-13T22:13:48.850Z,98875.06
2023-11-13T22:16:19.300Z,98886.81
2023-11-13T22:18:47.202Z,98882.41
2023-11-13T22:21:15.083Z,98891.44
2023-11-13T22:23:42.860Z,98891.78
2023-11-13T22:26:10.610Z,98893.69
2023-11-13T22:28:38.461Z,98896.41
2023-11-13T22:31:07.505Z,98895.59
2023-11-13T22:33:35.275Z,98903.16
2023-11-13T22:36:02.988Z,98896.66
2023-11-13T22:38:30.719Z,98902.34
2023-11-13T22:40:59.032Z,98896.28
2023-11-13T22:43:26.963Z,98913.03
2023-11-13T22:45:55.200Z,98915.97
2023-11-13T22:48:25.111Z,98920.59
2023-11-13T22:50:52.839Z,98924.16
2023-11-13T22:53:20.649Z,98922.72
2023-11-13T22:55:48.512Z,98920.00
2023-11-13T22:58:16.442Z,98927.09
2023-11-13T23:00:52.532Z,98930.91
2023-11-13T23:03:20.760Z,98933.63
2023-11-13T23:05:50.572Z,98939.91
2023-11-13T23:08:19.370Z,98940.53
2023-11-13T23:10:52.694Z,98946.81
2023-11-13T23:13:20.971Z,98955.34
2023-11-13T23:15:54.666Z,98959.16
2023-11-13T23:18:27.902Z,98962.34
2023-11-13T23:21:05.817Z,98958.53
2023-11-13T23:23:41.260Z,98967.19
2023-11-13T23:26:25.107Z,98978.09
2023-11-13T23:28:58.768Z,98975.81
2023-11-13T23:31:34.671Z,98980.00
2023-11-13T23:34:04.119Z,98983.31
2023-11-13T23:36:41.160Z,98981.88
2023-11-13T23:39:22.435Z,98984.81
2023-11-13T23:41:51.155Z,98983.16
2023-11-13T23:44:34.486Z,98994.09
2023-11-13T23:47:03.242Z,98994.09
2023-11-13T23:49:31.951Z,98984.00
2023-11-13T23:52:02.381Z,98984.81
2023-11-13T23:54:39.060Z,98993.00
2023-11-13T23:57:07.343Z,98992.34
2023-11-13T23:59:41.143Z,98986.06
